createdAt,value
2023-01-10T00:01:38.151Z,1.52
2023-01-10T00:04:04.713Z,1.80
2023-01-10T00:06:31.116Z,1.92
2023-01-10T00:08:57.661Z,1.70
2023-01-10T00:11:43.210Z,1.80
2023-01-10T00:14:11.223Z,1.48
2023-01-10T00:16:39.300Z,1.60
2023-01-10T00:19:07.137Z,1.40
2023-01-10T00:21:33.467Z,1.30
2023-01-10T00:24:16.630Z,1.60
2023-01-10T00:26:45.562Z,1.25
2023-01-10T00:29:12.199Z,1.83
2023-01-10T00:31:38.535Z,1.52
2023-01-10T00:34:05.096Z,1.27
2023-01-10T00:36:31.431Z,1.63
2023-01-10T00:38:57.819Z,1.70
2023-01-10T00:41:42.829Z,1.73
2023-01-10T00:44:09.289Z,2.40
2023-01-10T00:46:35.830Z,2.30
2023-01-10T00:49:05.403Z,2.60
2023-01-10T00:51:31.764Z,2.30
2023-01-10T00:53:58.168Z,2.60
2023-01-10T00:56:24.505Z,3.22
2023-01-10T00:58:50.938Z,3.22
2023-01-10T01:01:17.524Z,3.10
2023-01-10T01:03:43.928Z,4.00
2023-01-10T01:06:10.332Z,3.80
2023-01-10T01:08:36.770Z,4.20
2023-01-10T01:11:03.172Z,3.47
2023-01-10T01:13:29.740Z,3.67
2023-01-10T01:16:00.277Z,3.88
2023-01-10T01:18:27.345Z,4.20
2023-01-10T01:20:57.971Z,3.97
2023-01-10T01:23:24.711Z,4.82
2023-01-10T01:25:54.436Z,4.43
2023-01-10T01:28:21.902Z,4.25
2023-01-10T01:30:49.260Z,3.55
2023-01-10T01:33:16.420Z,4.55
2023-01-10T01:35:44.217Z,4.40
2023-01-10T01:38:11.092Z,3.72
2023-01-10T01:40:41.671Z,3.90
2023-01-10T01:43:31.978Z,4.18
2023-01-10T01:46:02.820Z,4.10
2023-01-10T01:48:41.317Z,4.55
2023-01-10T01:51:20.698Z,4.03
2023-01-10T01:53:56.993Z,3.58
2023-01-10T01:56:30.487Z,3.92
2023-01-10T01:59:06.643Z,3.90
2023-01-10T02:01:34.011Z,4.22
2023-01-10T02:04:08.545Z,4.13
2023-01-10T02:06:34.945Z,4.07
2023-01-10T02:09:32.450Z,3.95
2023-01-10T02:11:59.147Z,3.83
2023-01-10T02:14:26.500Z,3.45
2023-01-10T02:16:52.937Z,3.33
2023-01-10T02:19:43.262Z,3.72
2023-01-10T02:22:27.893Z,3.40
2023-01-10T02:25:23.116Z,3.88
2023-01-10T02:28:14.411Z,3.67
2023-01-10T02:31:19.509Z,4.20
2023-01-10T02:33:51.829Z,3.42
2023-01-10T02:36:56.584Z,3.88
2023-01-10T02:39:36.229Z,3.80
2023-01-10T02:42:13.519Z,3.63
2023-01-10T02:45:19.984Z,4.00
2023-01-10T02:47:46.428Z,5.05
2023-01-10T02:50:44.970Z,4.60
2023-01-10T02:53:11.334Z,4.55
2023-01-10T02:56:01.724Z,4.20
2023-01-10T02:58:40.269Z,4.57
2023-01-10T03:01:26.661Z,4.63
2023-01-10T03:04:11.922Z,4.65
2023-01-10T03:07:07.733Z,4.50
2023-01-10T03:09:40.143Z,4.90
2023-01-10T03:12:18.432Z,4.68
2023-01-10T03:14:47.232Z,4.85
2023-01-10T03:17:15.831Z,4.70
2023-01-10T03:19:47.362Z,4.78
2023-01-10T03:22:14.847Z,5.00
2023-01-10T03:24:46.773Z,5.13
2023-01-10T03:27:57.756Z,5.55
2023-01-10T03:30:41.635Z,4.97
2023-01-10T03:33:08.355Z,4.95
2023-01-10T03:35:57.597Z,4.50
2023-01-10T03:38:43.917Z,4.00
2023-01-10T03:46:46.879Z,4.05
2023-01-10T03:49:15.004Z,4.30
2023-01-10T03:51:42.485Z,5.40
2023-01-10T03:54:09.100Z,4.25
2023-01-10T03:56:50.705Z,5.00
2023-01-10T03:59:20.530Z,4.43
2023-01-10T04:01:47.288Z,4.55
2023-01-10T04:04:14.063Z,5.72
2023-01-10T04:06:41.667Z,4.70
2023-01-10T04:09:08.498Z,4.90
2023-01-10T04:11:35.031Z,5.00
2023-01-10T04:14:01.424Z,4.53
2023-01-10T04:16:27.858Z,4.57
2023-01-10T04:18:54.299Z,4.63
2023-01-10T04:21:21.191Z,4.53
2023-01-10T04:23:47.684Z,4.63
2023-01-10T04:26:14.212Z,4.18
2023-01-10T04:28:40.701Z,4.85
2023-01-10T04:31:08.093Z,4.53
2023-01-10T04:33:34.583Z,4.10
2023-01-10T04:36:01.045Z,3.53
2023-01-10T04:38:27.456Z,4.53
2023-01-10T04:40:56.237Z,4.07
2023-01-10T04:43:24.168Z,4.47
2023-01-10T04:45:50.788Z,3.90
2023-01-10T04:48:17.472Z,4.32
2023-01-10T04:50:49.338Z,4.00
2023-01-10T04:53:15.685Z,4.03
2023-01-10T04:55:42.350Z,4.20
2023-01-10T04:58:08.780Z,4.40
2023-01-10T05:00:35.103Z,4.30
2023-01-10T05:03:01.561Z,3.85
2023-01-10T05:05:28.509Z,4.03
2023-01-10T05:07:54.860Z,4.18
2023-01-10T05:10:21.187Z,3.95
2023-01-10T05:12:47.574Z,3.80
2023-01-10T05:15:13.952Z,3.80
2023-01-10T05:17:40.709Z,3.63
2023-01-10T05:20:07.493Z,4.53
2023-01-10T05:22:34.054Z,4.10
2023-01-10T05:25:00.556Z,3.83
2023-01-10T05:27:26.920Z,4.20
2023-01-10T05:29:53.315Z,4.50
2023-01-10T05:32:19.747Z,4.28
2023-01-10T05:34:46.089Z,4.20
2023-01-10T05:37:12.498Z,3.97
2023-01-10T05:39:39.981Z,3.72
2023-01-10T05:42:06.426Z,3.85
2023-01-10T05:44:32.789Z,4.45
2023-01-10T05:46:59.153Z,3.67
2023-01-10T05:49:25.503Z,3.83
2023-01-10T05:51:51.956Z,4.05
2023-01-10T05:54:18.704Z,4.18
2023-01-10T05:56:45.025Z,4.32
2023-01-10T05:59:23.751Z,4.70
2023-01-10T06:01:54.121Z,4.47
2023-01-10T06:04:20.523Z,4.32
2023-01-10T06:06:46.855Z,4.15
2023-01-10T06:09:13.166Z,3.90
2023-01-10T06:11:39.640Z,4.20
2023-01-10T06:14:07.687Z,4.57
2023-01-10T06:16:34.094Z,3.70
2023-01-10T06:19:00.479Z,4.05
2023-01-10T06:21:26.866Z,4.43
2023-01-10T06:23:53.276Z,4.45
2023-01-10T06:26:19.667Z,4.75
2023-01-10T06:28:46.080Z,5.25
2023-01-10T06:31:14.826Z,4.18
2023-01-10T06:33:41.580Z,4.45
2023-01-10T06:36:08.653Z,4.13
2023-01-10T06:38:35.117Z,4.13
2023-01-10T06:41:12.834Z,4.30
2023-01-10T06:43:45.307Z,4.40
2023-01-10T06:46:16.685Z,4.55
2023-01-10T06:48:45.445Z,4.43
2023-01-10T06:51:13.686Z,4.78
2023-01-10T06:53:40.550Z,4.60
2023-01-10T06:56:08.813Z,4.00
2023-01-10T06:58:38.474Z,4.80
2023-01-10T07:01:13.893Z,4.93
2023-01-10T07:03:49.555Z,5.25
2023-01-10T07:06:16.164Z,4.15
2023-01-10T07:08:46.793Z,4.20
2023-01-10T07:11:17.624Z,4.65
2023-01-10T07:13:44.167Z,4.75
2023-01-10T07:16:14.256Z,4.72
2023-01-10T07:18:42.229Z,4.97
2023-01-10T07:21:10.011Z,4.07
2023-01-10T07:23:36.745Z,5.32
2023-01-10T07:26:10.151Z,4.95
2023-01-10T07:28:37.283Z,5.38
2023-01-10T07:31:05.785Z,4.63
2023-01-10T07:33:32.360Z,5.95
2023-01-10T07:36:00.578Z,5.25
2023-01-10T07:38:27.126Z,5.28
2023-01-10T07:40:53.571Z,4.88
2023-01-10T07:43:20.003Z,5.65
2023-01-10T07:45:46.834Z,5.03
2023-01-10T07:48:13.227Z,4.57
2023-01-10T07:50:40.034Z,5.10
2023-01-10T07:53:07.604Z,5.85
2023-01-10T07:55:38.747Z,4.80
2023-01-10T07:58:07.872Z,5.20
2023-01-10T08:00:35.262Z,5.35
2023-01-10T08:03:01.998Z,5.00
2023-01-10T08:05:28.640Z,4.55
2023-01-10T08:07:59.807Z,5.28
2023-01-10T08:10:27.191Z,4.80
2023-01-10T08:12:53.592Z,5.13
2023-01-10T08:15:20.121Z,5.32
2023-01-10T08:17:46.610Z,4.85
2023-01-10T08:20:13.000Z,5.43
2023-01-10T08:22:39.426Z,4.60
2023-01-10T08:25:06.146Z,4.93
2023-01-10T08:27:32.599Z,4.93
2023-01-10T08:29:59.580Z,5.25
2023-01-10T08:32:32.093Z,5.70
2023-01-10T08:34:58.468Z,5.72
2023-01-10T08:37:24.840Z,5.50
2023-01-10T08:39:51.227Z,5.20
2023-01-10T08:42:18.691Z,6.38
2023-01-10T08:44:45.215Z,5.25
2023-01-10T08:47:11.669Z,5.13
2023-01-10T08:49:38.000Z,6.45
2023-01-10T08:52:04.440Z,6.05
2023-01-10T08:54:30.881Z,5.32
2023-01-10T08:56:57.201Z,6.40
2023-01-10T08:59:23.530Z,6.10
2023-01-10T09:01:50.011Z,6.25
2023-01-10T09:04:17.208Z,6.13
2023-01-10T09:06:43.641Z,6.18
2023-01-10T09:09:10.276Z,6.65
2023-01-10T09:11:36.708Z,5.22
2023-01-10T09:14:03.110Z,5.43
2023-01-10T09:16:29.504Z,5.50
2023-01-10T09:18:56.260Z,6.20
2023-01-10T09:21:22.669Z,5.53
2023-01-10T09:23:49.076Z,5.40
2023-01-10T09:26:15.431Z,5.90
2023-01-10T09:28:41.848Z,5.45
2023-01-10T09:31:08.887Z,5.60
2023-01-10T09:33:46.204Z,5.93
2023-01-10T09:36:15.333Z,5.38
2023-01-10T09:38:41.926Z,5.78
2023-01-10T09:41:22.809Z,5.05
2023-01-10T09:44:04.741Z,6.15
2023-01-10T09:46:42.754Z,6.00
2023-01-10T09:49:26.867Z,6.53
2023-01-10T09:51:58.907Z,5.47
2023-01-10T09:54:29.259Z,6.45
2023-01-10T09:56:56.397Z,5.65
2023-01-10T09:59:43.125Z,6.40
2023-01-10T10:02:32.724Z,5.82
2023-01-10T10:05:09.890Z,5.95
2023-01-10T10:07:36.811Z,6.07
2023-01-10T10:10:06.016Z,6.05
2023-01-10T10:12:41.449Z,6.20
2023-01-10T10:15:39.309Z,6.47
2023-01-10T10:18:14.772Z,5.63
2023-01-10T10:21:03.344Z,5.07
2023-01-10T10:23:41.540Z,5.35
2023-01-10T10:26:11.040Z,5.18
2023-01-10T10:28:53.884Z,5.88
2023-01-10T10:31:43.020Z,6.15
2023-01-10T10:34:37.460Z,5.50
2023-01-10T10:37:33.770Z,5.40
2023-01-10T10:40:07.783Z,5.13
2023-01-10T10:42:39.796Z,4.90
2023-01-10T10:45:17.373Z,4.82
2023-01-10T10:47:50.341Z,5.70
2023-01-10T10:50:35.710Z,5.13
2023-01-10T10:53:04.098Z,5.80
2023-01-10T10:55:36.463Z,5.72
2023-01-10T10:58:05.465Z,6.20
2023-01-10T11:00:31.974Z,6.45
2023-01-10T11:03:13.068Z,6.15
2023-01-10T11:05:43.176Z,5.43
2023-01-10T11:08:16.180Z,5.30
2023-01-10T11:10:47.010Z,5.32
2023-01-10T11:13:27.567Z,4.60
2023-01-10T11:15:56.091Z,4.38
2023-01-10T11:18:25.975Z,5.03
2023-01-10T11:20:52.400Z,4.32
2023-01-10T11:23:52.958Z,5.55
2023-01-10T11:26:35.752Z,5.20
2023-01-10T11:29:33.846Z,5.32
2023-01-10T11:32:10.060Z,5.60
2023-01-10T11:34:37.552Z,5.05
2023-01-10T11:37:18.008Z,5.70
2023-01-10T11:39:44.586Z,5.78
2023-01-10T11:42:30.752Z,6.00
2023-01-10T11:45:18.696Z,5.70
2023-01-10T11:47:50.422Z,6.20
2023-01-10T11:50:28.742Z,5.47
2023-01-10T11:52:56.437Z,6.15
2023-01-10T11:55:26.326Z,6.25
2023-01-10T11:58:13.591Z,5.43
2023-01-10T12:00:43.865Z,5.90
2023-01-10T12:03:32.711Z,5.20
2023-01-10T12:06:08.299Z,6.40
2023-01-10T12:08:36.853Z,6.05
2023-01-10T12:11:07.057Z,5.88
2023-01-10T12:13:44.568Z,5.68
2023-01-10T12:16:26.156Z,5.85
2023-01-10T12:18:59.905Z,7.13
2023-01-10T12:21:40.828Z,5.47
2023-01-10T12:24:26.625Z,6.75
2023-01-10T12:26:53.784Z,5.63
2023-01-10T12:29:25.432Z,6.40
2023-01-10T12:31:54.706Z,7.05
2023-01-10T12:34:25.261Z,7.20
2023-01-10T12:37:14.693Z,7.15
2023-01-10T12:39:46.735Z,7.40
2023-01-10T12:42:44.737Z,7.32
2023-01-10T12:45:23.669Z,6.30
2023-01-10T12:48:05.502Z,5.85
2023-01-10T12:50:39.024Z,5.88
2023-01-10T12:53:24.747Z,6.85
2023-01-10T12:55:56.681Z,7.45
2023-01-10T12:58:48.213Z,5.68
2023-01-10T13:01:21.591Z,6.00
2023-01-10T13:03:56.064Z,6.45
2023-01-10T13:06:35.147Z,6.03
2023-01-10T13:09:20.044Z,5.75
2023-01-10T13:12:02.396Z,4.97
2023-01-10T13:14:37.469Z,5.55
2023-01-10T13:17:27.970Z,5.43
2023-01-10T13:20:16.225Z,5.57
2023-01-10T13:22:45.056Z,5.57
2023-01-10T13:25:22.303Z,5.80
2023-01-10T13:27:57.411Z,5.10
2023-01-10T13:30:32.274Z,5.15
2023-01-10T13:33:27.570Z,5.20
2023-01-10T13:35:58.566Z,4.97
2023-01-10T13:38:34.583Z,5.22
2023-01-10T13:41:08.466Z,4.72
2023-01-10T13:44:02.183Z,4.57
2023-01-10T13:46:31.705Z,4.53
2023-01-10T13:49:00.287Z,4.43
2023-01-10T13:51:27.923Z,4.13
2023-01-10T13:53:57.136Z,4.35
2023-01-10T13:56:38.518Z,4.68
2023-01-10T13:59:17.521Z,4.95
2023-01-10T14:02:08.339Z,5.05
2023-01-10T14:04:46.486Z,4.05
2023-01-10T14:07:33.456Z,3.70
2023-01-10T14:10:07.387Z,3.90
2023-01-10T14:12:48.847Z,4.57
2023-01-10T14:15:37.162Z,4.10
2023-01-10T14:18:05.835Z,4.20
2023-01-10T14:20:35.331Z,3.55
2023-01-10T14:23:08.241Z,4.45
2023-01-10T14:25:36.754Z,3.83
2023-01-10T14:28:05.351Z,4.28
2023-01-10T14:30:38.433Z,3.40
2023-01-10T14:33:13.751Z,4.32
2023-01-10T14:35:47.097Z,3.75
2023-01-10T14:38:34.937Z,4.32
2023-01-10T14:41:11.480Z,4.28
2023-01-10T14:43:44.608Z,4.05
2023-01-10T14:46:13.646Z,3.45
2023-01-10T14:48:51.943Z,4.13
2023-01-10T14:51:21.533Z,4.22
2023-01-10T14:53:56.572Z,4.32
2023-01-10T14:56:30.364Z,4.47
2023-01-10T14:58:56.821Z,4.05
2023-01-10T15:01:26.827Z,3.40
2023-01-10T15:03:54.238Z,4.03
2023-01-10T15:06:21.068Z,4.20
2023-01-10T15:08:59.662Z,3.45
2023-01-10T15:11:27.904Z,3.85
2023-01-10T15:14:00.122Z,4.07
2023-01-10T15:16:28.594Z,4.30
2023-01-10T15:18:56.465Z,3.63
2023-01-10T15:21:24.291Z,3.55
2023-01-10T15:23:50.752Z,4.80
2023-01-10T15:26:21.522Z,3.85
2023-01-10T15:29:24.139Z,4.10
2023-01-10T15:31:53.308Z,3.67
2023-01-10T15:34:22.804Z,3.85
2023-01-10T15:37:01.836Z,3.97
2023-01-10T15:39:35.560Z,4.40
2023-01-10T15:42:08.430Z,3.45
2023-01-10T15:44:48.504Z,3.47
2023-01-10T15:47:36.246Z,3.80
2023-01-10T15:50:28.283Z,3.63
2023-01-10T15:52:58.781Z,3.92
2023-01-10T15:55:38.655Z,3.47
2023-01-10T15:58:27.465Z,3.75
2023-01-10T16:00:56.320Z,3.88
2023-01-10T16:03:32.004Z,3.63
2023-01-10T16:06:00.138Z,3.33
2023-01-10T16:08:35.279Z,3.75
2023-01-10T16:11:05.258Z,3.72
2023-01-10T16:13:33.093Z,3.90
2023-01-10T16:16:02.141Z,3.70
2023-01-10T16:18:28.742Z,3.50
2023-01-10T16:20:58.476Z,3.88
2023-01-10T16:23:30.370Z,3.25
2023-01-10T16:26:00.154Z,3.67
2023-01-10T16:28:29.005Z,3.63
2023-01-10T16:30:55.377Z,3.60
2023-01-10T16:33:27.662Z,3.20
2023-01-10T16:35:56.401Z,3.78
2023-01-10T16:38:24.030Z,3.17
2023-01-10T16:40:58.894Z,3.45
2023-01-10T16:43:26.944Z,2.92
2023-01-10T16:46:00.020Z,2.83
2023-01-10T16:48:29.064Z,4.07
2023-01-10T16:51:05.600Z,3.35
2023-01-10T16:53:31.982Z,3.53
2023-01-10T16:55:58.420Z,3.00
2023-01-10T16:58:24.865Z,2.83
2023-01-10T17:00:52.432Z,2.80
2023-01-10T17:03:22.663Z,2.88
2023-01-10T17:05:49.759Z,2.60
2023-01-10T17:08:20.596Z,3.25
2023-01-10T17:10:50.956Z,3.10
2023-01-10T17:13:23.437Z,2.50
2023-01-10T17:15:49.916Z,3.58
2023-01-10T17:18:16.320Z,3.50
2023-01-10T17:20:42.746Z,3.97
2023-01-10T17:23:12.031Z,3.15
2023-01-10T17:25:38.515Z,3.58
2023-01-10T17:28:05.069Z,3.15
2023-01-10T17:30:31.559Z,3.38
2023-01-10T17:32:58.611Z,2.75
2023-01-10T17:35:28.337Z,3.10
2023-01-10T17:37:54.921Z,3.42
2023-01-10T17:40:21.313Z,3.10
2023-01-10T17:42:47.677Z,2.67
2023-01-10T17:45:14.259Z,3.17
2023-01-10T17:47:40.612Z,2.90
2023-01-10T17:50:07.152Z,2.75
2023-01-10T17:52:33.538Z,3.08
2023-01-10T17:54:59.913Z,3.25
2023-01-10T17:57:26.335Z,3.28
2023-01-10T17:59:52.710Z,3.00
2023-01-10T18:02:19.288Z,2.90
2023-01-10T18:04:45.909Z,2.70
2023-01-10T18:07:14.684Z,3.45
2023-01-10T18:09:41.093Z,3.35
2023-01-10T18:12:07.650Z,2.92
2023-01-10T18:14:37.313Z,2.78
2023-01-10T18:17:06.531Z,3.42
2023-01-10T18:19:34.412Z,3.33
2023-01-10T18:22:01.209Z,3.60
2023-01-10T18:24:27.582Z,3.20
2023-01-10T18:26:54.271Z,3.35
2023-01-10T18:29:21.058Z,3.42
2023-01-10T18:31:47.385Z,3.55
2023-01-10T18:34:13.734Z,3.72
2023-01-10T18:36:40.949Z,3.33
2023-01-10T18:39:07.267Z,3.67
2023-01-10T18:41:33.609Z,3.30
2023-01-10T18:44:00.636Z,3.28
2023-01-10T18:46:28.494Z,2.88
2023-01-10T18:48:55.025Z,3.63
2023-01-10T18:51:22.867Z,2.75
2023-01-10T18:53:49.353Z,3.15
2023-01-10T18:56:17.047Z,3.45
2023-01-10T18:58:43.958Z,3.85
2023-01-10T19:01:16.767Z,2.75
2023-01-10T19:03:43.587Z,2.92
2023-01-10T19:06:12.347Z,2.90
2023-01-10T19:08:39.439Z,3.00
2023-01-10T19:11:13.971Z,2.95
2023-01-10T19:13:41.650Z,3.40
2023-01-10T19:16:14.016Z,3.05
2023-01-10T19:18:41.045Z,3.00
2023-01-10T19:21:14.751Z,3.67
2023-01-10T19:23:42.410Z,2.95
2023-01-10T19:26:08.830Z,3.55
2023-01-10T19:28:35.534Z,2.72
2023-01-10T19:31:05.008Z,2.70
2023-01-10T19:33:34.999Z,2.88
2023-01-10T19:36:07.867Z,2.90
2023-01-10T19:38:34.886Z,2.95
2023-01-10T19:41:02.134Z,2.90
2023-01-10T19:43:28.924Z,2.45
2023-01-10T19:45:55.630Z,3.10
2023-01-10T19:48:23.238Z,2.85
2023-01-10T19:50:49.689Z,2.28
2023-01-10T19:53:16.069Z,2.53
2023-01-10T19:55:42.465Z,2.78
2023-01-10T19:58:08.985Z,2.30
2023-01-10T20:00:35.346Z,2.95
2023-01-10T20:03:01.796Z,2.40
2023-01-10T20:05:28.301Z,2.63
2023-01-10T20:07:54.650Z,2.28
2023-01-10T20:10:20.996Z,2.33
2023-01-10T20:12:47.616Z,2.08
2023-01-10T20:15:14.008Z,1.95
2023-01-10T20:17:40.851Z,1.95
2023-01-10T20:20:07.835Z,1.83
2023-01-10T20:22:34.166Z,2.05
2023-01-10T20:25:00.826Z,2.10
2023-01-10T20:27:28.239Z,1.63
2023-01-10T20:29:54.631Z,1.75
2023-01-10T20:32:21.888Z,1.83
2023-01-10T20:34:49.531Z,1.75
2023-01-10T20:37:15.967Z,1.83
2023-01-10T20:39:42.340Z,1.90
2023-01-10T20:42:08.757Z,1.50
2023-01-10T20:44:35.226Z,1.63
2023-01-10T20:47:01.643Z,1.20
2023-01-10T20:49:28.180Z,1.83
2023-01-10T20:51:54.666Z,1.50
2023-01-10T20:54:21.273Z,1.33
2023-01-10T20:56:47.703Z,1.77
2023-01-10T20:59:14.124Z,1.55
2023-01-10T21:01:40.646Z,1.50
2023-01-10T21:04:07.630Z,1.20
2023-01-10T21:06:35.302Z,1.20
2023-01-10T21:09:02.864Z,1.30
2023-01-10T21:11:29.192Z,1.27
2023-01-10T21:13:55.507Z,1.80
2023-01-10T21:16:22.482Z,1.50
2023-01-10T21:18:49.125Z,1.33
2023-01-10T21:21:18.098Z,1.30
2023-01-10T21:23:45.008Z,1.25
2023-01-10T21:26:13.517Z,1.77
2023-01-10T21:28:42.403Z,1.30
2023-01-10T21:31:10.193Z,1.30
2023-01-10T21:33:37.103Z,1.20
2023-01-10T21:36:04.686Z,1.50
2023-01-10T21:38:32.410Z,1.30
2023-01-10T21:41:07.132Z,1.48
2023-01-10T21:43:33.611Z,1.30
2023-01-10T21:46:00.776Z,1.40
2023-01-10T21:48:28.926Z,1.35
2023-01-10T21:50:55.557Z,1.33
2023-01-10T21:53:22.672Z,1.35
2023-01-10T21:55:49.078Z,1.45
2023-01-10T21:58:15.449Z,1.60
2023-01-10T22:00:41.843Z,1.25
2023-01-10T22:03:08.265Z,1.77
2023-01-10T22:05:34.626Z,1.60
2023-01-10T22:08:00.964Z,1.67
2023-01-10T22:10:27.351Z,1.40
2023-01-10T22:12:53.791Z,1.30
2023-01-10T22:15:20.625Z,1.45
2023-01-10T22:17:48.222Z,1.60
2023-01-10T22:20:16.592Z,1.73
2023-01-10T22:22:42.945Z,1.15
2023-01-10T22:25:09.580Z,1.33
2023-01-10T22:27:35.937Z,1.60
2023-01-10T22:30:02.278Z,1.38
2023-01-10T22:32:28.665Z,1.60
2023-01-10T22:34:55.115Z,1.70
2023-01-10T22:37:21.499Z,1.25
2023-01-10T22:39:48.716Z,1.40
2023-01-10T22:42:15.153Z,1.38
2023-01-10T22:44:41.521Z,1.75
2023-01-10T22:47:08.613Z,1.58
2023-01-10T22:49:34.924Z,1.60
2023-01-10T22:52:01.326Z,1.38
2023-01-10T22:54:27.683Z,1.50
2023-01-10T22:56:54.031Z,1.33
2023-01-10T22:59:20.467Z,1.30
2023-01-10T23:01:46.780Z,0.98
2023-01-10T23:04:13.168Z,1.20
2023-01-10T23:06:39.842Z,1.17
2023-01-10T23:09:06.201Z,1.10
2023-01-10T23:11:32.524Z,1.25
2023-01-10T23:13:58.951Z,1.65
2023-01-10T23:16:32.612Z,1.40
2023-01-10T23:18:59.907Z,1.20
2023-01-10T23:21:29.120Z,1.42
2023-01-10T23:23:55.833Z,1.30
2023-01-10T23:26:22.692Z,1.23
2023-01-10T23:28:50.853Z,1.40
2023-01-10T23:31:19.611Z,1.27
2023-01-10T23:33:46.482Z,1.30
2023-01-10T23:36:12.927Z,1.25
2023-01-10T23:38:39.355Z,1.10
2023-01-10T23:41:06.411Z,1.13
2023-01-10T23:43:32.820Z,1.10
2023-01-10T23:45:59.322Z,1.23
2023-01-10T23:48:25.810Z,1.15
2023-01-10T23:50:52.325Z,1.20
2023-01-10T23:53:18.773Z,1.20
2023-01-10T23:55:45.437Z,1.00
2023-01-10T23:58:12.113Z,1.10
